Plymouth Municipal Airport

About

Name: Plymouth Municipal Airport
Identifier:  PYM/KPYM
Local Time:  26. Jan 22:35 EST

Location

Plymouth Municipal Airport

Statistics

Flights Per Day:
0 Flights
Distance: 174km (108mi)
Flights Delayed:
50% (0 Flights/Day Delayed)
Average Delay: 21 minutes

Current Weather

 2 C (Humidity: 74%)
  6kt (11km/h / 6mph) from 220°
  Broken clouds at 4,700 feet (1,432 meter)
  16km (10 mi.)
 METAR KPYM 270252Z AUTO 22006KT 10SM BKN047 02/M02 A2970 RMK AO2 SLP058 T00171022 58002

Claim Compensation

Claim compensation for your flight delay or cancellation
Flight delays happen, but that doesn’t mean you have to accept them. You may be entitled to as much as €600/$700 in compensation if your flight has been delayed, canceled or overbooked within the last three years.

Current Delays

Departures

N/A

Arrivals

N/A

Destinations

Map

Top Destinations

Airport Flights
per week
Seats
per week
  Teterboro (TEB) 0 - 0 0

Airlines & Planes

Top Airlines

Airline Flights
per day
Seats
per day
  Centennial Airlines 0 -

Top Models

model Flights seats
Pilatus PC-12 0.0/day - 0